createdAt,value
2017-10-18T00:01:55.607Z,27.42
2017-10-18T00:04:23.183Z,33.83
2017-10-18T00:06:50.797Z,29.70
2017-10-18T00:09:18.422Z,29.63
2017-10-18T00:11:45.994Z,31.50
2017-10-18T00:14:13.603Z,30.92
2017-10-18T00:16:41.223Z,31.83
2017-10-18T00:19:08.879Z,31.20
2017-10-18T00:21:36.494Z,26.40
2017-10-18T00:24:04.074Z,34.72
2017-10-18T00:26:31.693Z,26.60
2017-10-18T00:28:59.398Z,28.30
2017-10-18T00:31:27.010Z,27.98
2017-10-18T00:33:54.599Z,26.37
2017-10-18T00:36:22.186Z,29.48
2017-10-18T00:38:49.801Z,30.27
2017-10-18T00:41:17.418Z,34.22
2017-10-18T00:43:45.041Z,28.55
2017-10-18T00:46:12.623Z,28.80
2017-10-18T00:48:40.235Z,31.48
2017-10-18T00:51:07.857Z,33.05
2017-10-18T00:53:35.712Z,25.92
2017-10-18T00:56:03.323Z,33.65
2017-10-18T00:58:30.910Z,37.33
2017-10-18T01:00:58.535Z,31.80
2017-10-18T01:03:26.146Z,30.60
2017-10-18T01:05:53.758Z,37.50
2017-10-18T01:08:21.366Z,31.62
2017-10-18T01:10:49.031Z,32.10
2017-10-18T01:13:16.639Z,33.85
2017-10-18T01:15:44.260Z,38.15
2017-10-18T01:18:11.836Z,33.38
2017-10-18T01:20:39.408Z,35.05
2017-10-18T01:23:07.787Z,31.65
2017-10-18T01:25:35.359Z,31.42
2017-10-18T01:28:03.054Z,32.63
2017-10-18T01:30:30.670Z,33.35
2017-10-18T01:32:58.244Z,31.62
2017-10-18T01:35:25.862Z,37.28
2017-10-18T01:37:53.478Z,36.83
2017-10-18T01:40:21.089Z,35.45
2017-10-18T01:42:48.663Z,28.48
2017-10-18T01:45:17.039Z,32.83
2017-10-18T01:47:45.414Z,42.38
2017-10-18T01:50:13.797Z,36.13
2017-10-18T01:52:42.179Z,34.17
2017-10-18T01:55:10.522Z,36.17
2017-10-18T01:57:38.090Z,36.53
2017-10-18T02:00:05.665Z,35.70
2017-10-18T02:02:33.280Z,46.25
2017-10-18T02:05:00.890Z,40.88
2017-10-18T02:07:28.500Z,44.03
2017-10-18T02:09:56.120Z,39.30
2017-10-18T02:12:23.754Z,35.92
2017-10-18T02:14:51.423Z,40.40
2017-10-18T02:17:19.033Z,37.65
2017-10-18T02:19:46.644Z,37.25
2017-10-18T02:22:14.262Z,35.13
2017-10-18T02:24:41.890Z,42.50
2017-10-18T02:27:10.229Z,37.90
2017-10-18T02:29:37.849Z,38.13
2017-10-18T02:32:05.422Z,39.67
2017-10-18T02:34:33.037Z,42.20
2017-10-18T02:37:00.647Z,34.83
2017-10-18T02:39:28.259Z,37.30
2017-10-18T02:41:55.842Z,38.88
2017-10-18T02:44:23.456Z,32.45
2017-10-18T02:46:51.066Z,41.80
2017-10-18T02:49:18.676Z,39.90
2017-10-18T02:51:46.291Z,39.28
2017-10-18T02:54:13.902Z,43.95
2017-10-18T02:56:41.481Z,40.60
2017-10-18T02:59:09.106Z,41.70
2017-10-18T03:01:36.715Z,34.35
2017-10-18T03:04:04.288Z,44.90
2017-10-18T03:06:32.630Z,39.13
2017-10-18T03:09:00.248Z,46.67
2017-10-18T03:11:27.828Z,45.65
2017-10-18T03:13:55.446Z,38.95
2017-10-18T03:16:23.058Z,42.95
2017-10-18T03:18:50.716Z,39.92
2017-10-18T03:21:18.333Z,38.50
2017-10-18T03:23:46.716Z,36.03
2017-10-18T03:26:15.061Z,39.22
2017-10-18T03:28:42.646Z,40.95
2017-10-18T03:31:10.232Z,39.42
2017-10-18T03:33:37.891Z,50.33
2017-10-18T03:36:05.514Z,46.53
2017-10-18T03:38:33.096Z,48.85
2017-10-18T03:41:00.704Z,48.25
2017-10-18T03:43:28.314Z,44.47
2017-10-18T03:45:55.930Z,45.20
2017-10-18T03:48:23.539Z,44.38
2017-10-18T03:50:51.158Z,45.22
2017-10-18T03:53:18.779Z,54.13
2017-10-18T03:55:46.392Z,69.53
2017-10-18T03:58:14.009Z,50.70
2017-10-18T04:00:41.636Z,57.38
2017-10-18T04:03:10.011Z,55.22
2017-10-18T04:05:38.391Z,49.15
2017-10-18T04:08:06.772Z,56.58
2017-10-18T04:10:35.110Z,63.28
2017-10-18T04:13:02.722Z,61.22
2017-10-18T04:15:30.298Z,54.75
2017-10-18T04:17:57.923Z,53.50
2017-10-18T04:20:25.496Z,58.35
2017-10-18T04:22:53.122Z,49.78
2017-10-18T04:25:20.779Z,60.22
2017-10-18T04:27:48.393Z,61.58
2017-10-18T04:30:16.014Z,57.28
2017-10-18T04:32:43.813Z,70.95
2017-10-18T04:35:12.198Z,65.43
2017-10-18T04:37:39.817Z,54.85
2017-10-18T04:40:07.438Z,59.58
2017-10-18T04:42:35.068Z,49.65
2017-10-18T04:45:02.698Z,56.85
2017-10-18T04:47:31.209Z,49.42
2017-10-18T04:49:58.822Z,56.63
2017-10-18T04:52:26.435Z,63.33
2017-10-18T04:54:54.095Z,68.53
2017-10-18T04:57:21.719Z,64.18
2017-10-18T04:59:49.335Z,63.47
2017-10-18T05:02:16.991Z,58.28
2017-10-18T05:04:45.378Z,53.00
2017-10-18T05:07:13.028Z,64.75
2017-10-18T05:09:40.651Z,56.55
2017-10-18T05:12:08.273Z,62.60
2017-10-18T05:14:35.904Z,68.80
2017-10-18T05:17:03.545Z,60.75
2017-10-18T05:19:31.185Z,59.35
2017-10-18T05:21:58.816Z,56.50
2017-10-18T05:24:26.428Z,57.50
2017-10-18T05:26:54.051Z,56.97
2017-10-18T05:29:21.673Z,82.07
2017-10-18T05:31:49.303Z,82.97
2017-10-18T05:34:16.918Z,72.57
2017-10-18T05:36:44.489Z,64.35
2017-10-18T05:39:12.026Z,64.05
2017-10-18T05:41:39.639Z,74.72
2017-10-18T05:44:07.261Z,64.80
2017-10-18T05:46:34.884Z,59.03
2017-10-18T05:49:02.499Z,58.75
2017-10-18T05:51:30.178Z,64.55
2017-10-18T05:53:57.753Z,64.60
2017-10-18T05:56:25.370Z,64.85
2017-10-18T05:58:52.990Z,62.58
2017-10-18T06:01:20.638Z,64.57
2017-10-18T06:03:48.260Z,67.53
2017-10-18T06:06:15.839Z,67.80
2017-10-18T06:08:43.419Z,62.92
2017-10-18T06:11:11.034Z,63.87
2017-10-18T06:13:38.646Z,60.03
2017-10-18T06:16:06.260Z,65.18
2017-10-18T06:18:33.883Z,68.00
2017-10-18T06:21:01.558Z,71.00
2017-10-18T06:23:29.183Z,70.47
2017-10-18T06:25:56.847Z,63.03
2017-10-18T06:28:24.545Z,58.22
2017-10-18T06:30:52.167Z,60.88
2017-10-18T06:33:19.778Z,70.90
2017-10-18T06:35:47.396Z,68.20
2017-10-18T06:38:14.976Z,54.30
2017-10-18T06:40:42.591Z,55.83
2017-10-18T06:43:10.411Z,64.55
2017-10-18T06:45:38.787Z,65.20
2017-10-18T06:48:07.173Z,68.55
2017-10-18T06:50:35.515Z,61.97
2017-10-18T06:53:03.089Z,63.35
2017-10-18T06:55:30.711Z,57.22
2017-10-18T06:57:58.330Z,57.40
2017-10-18T07:00:25.940Z,52.50
2017-10-18T07:02:53.514Z,57.20
2017-10-18T07:05:21.164Z,60.00
2017-10-18T07:07:48.810Z,55.35
2017-10-18T07:10:16.419Z,58.30
2017-10-18T07:12:44.048Z,55.50
2017-10-18T07:15:11.624Z,70.28
2017-10-18T07:17:39.195Z,61.20
2017-10-18T07:20:06.812Z,62.28
2017-10-18T07:22:34.468Z,59.72
2017-10-18T07:25:02.047Z,59.40
2017-10-18T07:27:29.654Z,50.95
2017-10-18T07:29:57.262Z,61.05
2017-10-18T07:32:24.845Z,59.95
2017-10-18T07:34:52.420Z,49.25
2017-10-18T07:37:20.038Z,55.40
2017-10-18T07:39:47.659Z,51.35
2017-10-18T07:42:15.232Z,56.08
2017-10-18T07:44:43.614Z,45.17
2017-10-18T07:47:11.994Z,46.13
2017-10-18T07:49:40.379Z,51.75
2017-10-18T07:52:08.719Z,57.80
2017-10-18T07:54:36.352Z,54.75
2017-10-18T07:57:03.985Z,47.38
2017-10-18T07:59:31.596Z,42.00
2017-10-18T08:01:59.207Z,54.88
2017-10-18T08:04:26.818Z,42.55
2017-10-18T08:06:54.463Z,40.67
2017-10-18T08:09:22.134Z,37.90
2017-10-18T08:11:49.746Z,41.20
2017-10-18T08:14:17.363Z,38.53
2017-10-18T08:16:44.985Z,39.05
2017-10-18T08:19:12.577Z,42.45
2017-10-18T08:21:40.208Z,42.35
2017-10-18T08:24:07.827Z,43.40
2017-10-18T08:26:35.459Z,45.42
2017-10-18T08:29:03.083Z,44.38
2017-10-18T08:31:30.704Z,42.40
2017-10-18T08:33:58.323Z,39.05
2017-10-18T08:36:25.946Z,35.33
2017-10-18T08:38:53.564Z,40.75
2017-10-18T08:41:21.216Z,43.67
2017-10-18T08:43:48.832Z,46.85
2017-10-18T08:46:17.174Z,45.33
2017-10-18T08:48:44.765Z,48.15
2017-10-18T08:51:12.383Z,40.17
2017-10-18T08:53:39.995Z,37.47
2017-10-18T08:56:07.620Z,40.97
2017-10-18T08:58:35.242Z,55.17
2017-10-18T09:01:02.854Z,40.83
2017-10-18T09:03:30.536Z,39.35
2017-10-18T09:05:58.938Z,37.22
2017-10-18T09:08:26.548Z,41.60
2017-10-18T09:10:54.163Z,33.35
2017-10-18T09:13:21.778Z,42.42
2017-10-18T09:15:49.399Z,34.35
2017-10-18T09:18:17.020Z,37.17
2017-10-18T09:20:44.634Z,36.30
2017-10-18T09:23:12.254Z,49.80
2017-10-18T09:25:39.829Z,34.95
2017-10-18T09:28:07.573Z,41.67
2017-10-18T09:30:35.951Z,33.83
2017-10-18T09:33:04.351Z,45.53
2017-10-18T09:35:31.970Z,39.17
2017-10-18T09:37:59.581Z,38.08
2017-10-18T09:40:27.155Z,50.55
2017-10-18T09:42:54.768Z,38.53
2017-10-18T09:45:23.155Z,34.72
2017-10-18T09:47:51.576Z,36.25
2017-10-18T09:50:19.182Z,34.45
2017-10-18T09:52:46.791Z,41.17
2017-10-18T09:55:14.368Z,40.28
2017-10-18T09:57:41.982Z,37.20
2017-10-18T10:00:10.327Z,39.60
2017-10-18T10:02:37.943Z,43.80
2017-10-18T10:05:05.557Z,39.72
2017-10-18T10:07:33.171Z,31.75
2017-10-18T10:10:00.792Z,38.42
2017-10-18T10:12:29.141Z,34.50
2017-10-18T10:14:56.754Z,32.75
2017-10-18T10:17:24.369Z,42.45
2017-10-18T10:19:52.005Z,32.08
2017-10-18T10:22:19.614Z,30.75
2017-10-18T10:24:47.992Z,30.85
2017-10-18T10:27:16.375Z,32.67
2017-10-18T10:29:44.714Z,29.15
2017-10-18T10:32:12.324Z,32.63
2017-10-18T10:34:39.910Z,30.42
2017-10-18T10:37:07.522Z,28.65
2017-10-18T10:39:35.142Z,38.60
2017-10-18T10:42:02.759Z,24.70
2017-10-18T10:44:30.378Z,53.08
2017-10-18T10:46:57.998Z,25.80
2017-10-18T10:49:25.696Z,28.20
2017-10-18T10:51:53.310Z,33.90
2017-10-18T10:54:20.882Z,34.38
2017-10-18T10:56:48.495Z,38.28
2017-10-18T10:59:16.111Z,24.65
2017-10-18T11:01:43.722Z,31.40
2017-10-18T11:04:11.387Z,33.85
2017-10-18T11:06:38.999Z,33.92
2017-10-18T11:09:06.826Z,28.92
2017-10-18T11:11:34.438Z,32.85
2017-10-18T11:14:02.050Z,31.00
2017-10-18T11:16:29.663Z,24.12
2017-10-18T11:18:57.270Z,29.75
2017-10-18T11:21:24.891Z,34.08
2017-10-18T11:23:52.473Z,37.38
2017-10-18T11:26:20.086Z,31.70
2017-10-18T11:28:47.716Z,36.55
2017-10-18T11:31:15.544Z,32.85
2017-10-18T11:33:43.156Z,32.95
2017-10-18T11:36:10.771Z,35.15
2017-10-18T11:38:38.406Z,31.50
2017-10-18T11:41:06.015Z,29.10
2017-10-18T11:43:33.585Z,28.02
2017-10-18T11:46:01.195Z,24.12
2017-10-18T11:48:28.809Z,31.48
2017-10-18T11:50:56.413Z,25.98
2017-10-18T11:53:23.979Z,28.55
2017-10-18T11:55:51.676Z,24.73
2017-10-18T11:58:19.282Z,35.03
2017-10-18T12:00:46.902Z,31.52
2017-10-18T12:03:14.515Z,26.85
2017-10-18T12:05:42.124Z,26.52
2017-10-18T12:08:09.746Z,26.75
2017-10-18T12:10:37.374Z,29.70
2017-10-18T12:13:05.709Z,29.98
2017-10-18T12:15:33.318Z,25.25
2017-10-18T12:18:00.929Z,26.40
2017-10-18T12:20:28.538Z,28.12
2017-10-18T12:22:56.152Z,35.05
2017-10-18T12:25:23.758Z,30.10
2017-10-18T12:27:51.553Z,34.38
2017-10-18T12:30:19.436Z,31.45
2017-10-18T12:32:47.042Z,30.58
2017-10-18T12:35:14.658Z,30.77
2017-10-18T12:37:42.271Z,30.88
2017-10-18T12:40:09.880Z,33.65
2017-10-18T12:42:37.498Z,33.70
2017-10-18T12:45:05.160Z,38.47
2017-10-18T12:47:32.771Z,48.53
2017-10-18T12:50:00.384Z,29.30
2017-10-18T12:52:28.006Z,42.38
2017-10-18T12:54:55.622Z,38.85
2017-10-18T12:57:23.228Z,40.00
2017-10-18T12:59:50.808Z,40.97
2017-10-18T13:02:18.414Z,40.63
2017-10-18T13:04:46.019Z,45.60
2017-10-18T13:07:13.627Z,44.55
2017-10-18T13:09:41.237Z,58.28
2017-10-18T13:12:08.850Z,42.28
2017-10-18T13:14:36.464Z,45.67
2017-10-18T13:17:04.076Z,49.83
2017-10-18T13:19:31.687Z,44.50
2017-10-18T13:21:59.294Z,44.25
2017-10-18T13:24:26.912Z,51.67
2017-10-18T13:26:54.529Z,52.80
2017-10-18T13:29:22.141Z,57.30
2017-10-18T13:31:49.783Z,51.97
2017-10-18T13:34:17.394Z,52.22
2017-10-18T13:36:45.002Z,54.70
2017-10-18T13:39:12.619Z,58.95
2017-10-18T13:41:40.231Z,63.20
2017-10-18T13:44:07.847Z,59.03
2017-10-18T13:46:35.419Z,60.30
2017-10-18T13:49:03.031Z,70.05
2017-10-18T13:51:30.643Z,70.65
2017-10-18T13:53:58.252Z,67.45
2017-10-18T13:56:25.859Z,67.43
2017-10-18T13:58:53.471Z,71.50
2017-10-18T14:01:21.142Z,77.75
2017-10-18T14:03:49.562Z,66.75
2017-10-18T14:06:17.175Z,66.22
2017-10-18T14:08:44.800Z,65.43
2017-10-18T14:11:12.426Z,76.30
2017-10-18T14:13:40.043Z,72.22
2017-10-18T14:16:07.654Z,64.55
2017-10-18T14:18:35.304Z,84.95
2017-10-18T14:21:02.951Z,77.45
2017-10-18T14:23:31.335Z,78.37
2017-10-18T14:25:59.715Z,143.13
2017-10-18T14:28:27.327Z,153.75
2017-10-18T14:30:54.945Z,73.78
2017-10-18T14:33:22.562Z,146.45
2017-10-18T14:35:50.176Z,128.30
2017-10-18T14:38:17.800Z,173.57
2017-10-18T14:40:45.411Z,91.30
2017-10-18T14:43:13.019Z,81.00
2017-10-18T14:45:40.630Z,80.28
2017-10-18T14:48:08.244Z,77.45
2017-10-18T14:50:35.861Z,82.53
2017-10-18T14:53:03.474Z,80.05
2017-10-18T14:55:31.089Z,74.93
2017-10-18T14:57:58.700Z,69.37
2017-10-18T15:00:26.315Z,84.78
2017-10-18T15:02:53.988Z,73.45
2017-10-18T15:05:21.599Z,76.00
2017-10-18T15:07:49.207Z,77.90
2017-10-18T15:10:16.818Z,80.95
2017-10-18T15:12:44.426Z,84.57
2017-10-18T15:15:12.041Z,86.55
2017-10-18T15:17:39.659Z,119.05
2017-10-18T15:20:07.278Z,109.05
2017-10-18T15:22:34.973Z,118.50
2017-10-18T15:25:02.582Z,116.57
2017-10-18T15:27:30.205Z,120.03
2017-10-18T15:29:57.827Z,104.12
2017-10-18T15:32:25.487Z,113.80
2017-10-18T15:34:53.098Z,113.88
2017-10-18T15:37:20.719Z,107.32
2017-10-18T15:39:48.340Z,128.02
2017-10-18T15:42:16.007Z,144.55
2017-10-18T15:44:43.627Z,121.80
2017-10-18T15:47:11.251Z,112.60
2017-10-18T15:49:38.874Z,116.15
2017-10-18T15:52:06.495Z,117.03
2017-10-18T15:54:34.154Z,113.12
2017-10-18T15:57:01.771Z,111.25
2017-10-18T15:59:29.387Z,107.72
2017-10-18T16:01:57.049Z,112.05
2017-10-18T16:04:24.671Z,105.70
2017-10-18T16:06:52.374Z,103.87
2017-10-18T16:09:19.982Z,103.62
2017-10-18T16:11:47.596Z,111.47
2017-10-18T16:14:15.210Z,104.55
2017-10-18T16:16:43.603Z,100.93
2017-10-18T16:19:12.001Z,115.05
2017-10-18T16:21:39.622Z,110.07
2017-10-18T16:24:07.290Z,115.30
2017-10-18T16:26:34.907Z,108.97
2017-10-18T16:29:02.523Z,111.10
2017-10-18T16:31:30.143Z,114.75
2017-10-18T16:33:57.768Z,126.65
2017-10-18T16:36:25.387Z,117.05
2017-10-18T16:38:52.999Z,123.62
2017-10-18T16:41:20.612Z,124.47
2017-10-18T16:43:48.204Z,130.23
2017-10-18T16:46:15.838Z,126.28
2017-10-18T16:48:44.235Z,128.93
2017-10-18T16:51:12.619Z,131.57
2017-10-18T16:53:40.359Z,139.05
2017-10-18T16:56:07.990Z,126.38
2017-10-18T16:58:35.612Z,141.65
2017-10-18T17:01:03.197Z,139.62
2017-10-18T17:03:30.823Z,124.70
2017-10-18T17:05:59.164Z,115.43
2017-10-18T17:08:26.783Z,115.75
2017-10-18T17:10:54.408Z,111.80
2017-10-18T17:13:22.796Z,118.50
2017-10-18T17:15:51.171Z,120.60
2017-10-18T17:18:19.548Z,118.03
2017-10-18T17:20:47.931Z,121.03
2017-10-18T17:23:16.277Z,124.80
2017-10-18T17:25:43.854Z,135.25
2017-10-18T17:28:11.473Z,113.82
2017-10-18T17:30:39.149Z,125.97
2017-10-18T17:33:06.768Z,125.12
2017-10-18T17:35:34.343Z,127.85
2017-10-18T17:38:01.964Z,129.30
2017-10-18T17:40:30.359Z,123.28
2017-10-18T17:42:58.827Z,129.32
2017-10-18T17:45:26.447Z,124.45
2017-10-18T17:47:54.062Z,121.78
2017-10-18T17:50:21.670Z,128.18
2017-10-18T17:52:49.287Z,119.82
2017-10-18T17:55:16.918Z,144.48
2017-10-18T17:57:44.538Z,138.25
2017-10-18T18:00:12.157Z,134.68
2017-10-18T18:02:40.547Z,139.90
2017-10-18T18:05:08.889Z,138.85
2017-10-18T18:07:36.515Z,141.73
2017-10-18T18:10:04.148Z,134.80
2017-10-18T18:12:32.544Z,126.55
2017-10-18T18:15:00.175Z,125.25
2017-10-18T18:17:27.846Z,129.98
2017-10-18T18:19:55.473Z,128.60
2017-10-18T18:22:23.095Z,133.00
2017-10-18T18:24:50.706Z,136.30
2017-10-18T18:27:18.326Z,131.30
2017-10-18T18:29:45.943Z,141.15
2017-10-18T18:32:13.605Z,131.18
2017-10-18T18:34:41.195Z,129.73
2017-10-18T18:37:08.990Z,146.50
2017-10-18T18:39:36.698Z,149.95
2017-10-18T18:42:05.099Z,132.27
2017-10-18T18:44:32.710Z,133.95
2017-10-18T18:47:00.333Z,134.23
2017-10-18T18:49:27.943Z,125.70
2017-10-18T18:51:55.560Z,127.60
2017-10-18T18:54:23.176Z,145.32
2017-10-18T18:56:50.794Z,130.02
2017-10-18T18:59:18.410Z,127.15
2017-10-18T19:01:46.023Z,142.25
2017-10-18T19:04:13.732Z,130.02
2017-10-18T19:06:42.166Z,139.07
2017-10-18T19:09:09.787Z,149.90
2017-10-18T19:11:37.398Z,141.45
2017-10-18T19:14:04.977Z,143.02
2017-10-18T19:16:32.603Z,145.32
2017-10-18T19:19:00.231Z,141.52
2017-10-18T19:21:27.847Z,147.85
2017-10-18T19:23:55.474Z,137.05
2017-10-18T19:26:23.085Z,134.90
2017-10-18T19:28:50.767Z,137.02
2017-10-18T19:31:19.111Z,147.93
2017-10-18T19:33:46.727Z,139.05
2017-10-18T19:36:14.359Z,135.48
2017-10-18T19:38:41.977Z,149.50
2017-10-18T19:41:09.595Z,137.07
2017-10-18T19:43:37.983Z,131.90
2017-10-18T19:46:05.640Z,142.10
2017-10-18T19:48:33.223Z,146.43
2017-10-18T19:51:00.849Z,132.30
2017-10-18T19:53:28.471Z,132.07
2017-10-18T19:55:56.099Z,128.05
2017-10-18T19:58:23.983Z,122.25
2017-10-18T20:00:51.614Z,127.55
2017-10-18T20:03:19.519Z,129.23
2017-10-18T20:05:47.139Z,140.90
2017-10-18T20:08:14.755Z,130.50
2017-10-18T20:10:42.375Z,136.43
2017-10-18T20:13:10.027Z,116.90
2017-10-18T20:15:37.643Z,127.43
2017-10-18T20:18:05.268Z,125.60
2017-10-18T20:20:32.855Z,124.15
2017-10-18T20:23:00.433Z,123.60
2017-10-18T20:25:28.048Z,123.85
2017-10-18T20:27:55.683Z,129.77
2017-10-18T20:30:23.296Z,124.80
2017-10-18T20:32:50.915Z,124.78
2017-10-18T20:35:18.491Z,121.55
2017-10-18T20:37:46.199Z,118.50
2017-10-18T20:40:13.840Z,124.30
2017-10-18T20:42:41.452Z,124.70
2017-10-18T20:45:09.034Z,119.45
2017-10-18T20:47:36.654Z,124.97
2017-10-18T20:50:04.262Z,114.30
2017-10-18T20:52:31.842Z,114.07
2017-10-18T20:54:59.451Z,120.28
2017-10-18T20:57:27.843Z,127.55
2017-10-18T20:59:56.193Z,117.85
2017-10-18T21:02:23.861Z,119.70
2017-10-18T21:04:51.487Z,122.75
2017-10-18T21:07:19.103Z,114.93
2017-10-18T21:09:46.730Z,125.47
2017-10-18T21:12:14.361Z,134.52
2017-10-18T21:14:41.981Z,122.93
2017-10-18T21:17:09.573Z,117.18
2017-10-18T21:19:37.188Z,122.55
2017-10-18T21:22:04.804Z,123.85
2017-10-18T21:24:32.423Z,131.60
2017-10-18T21:27:00.046Z,122.30
2017-10-18T21:29:27.663Z,125.40
2017-10-18T21:31:55.275Z,123.55
2017-10-18T21:34:23.074Z,123.72
2017-10-18T21:36:51.435Z,132.68
2017-10-18T21:39:19.121Z,125.25
2017-10-18T21:41:46.701Z,119.82
2017-10-18T21:44:14.367Z,122.65
2017-10-18T21:46:41.947Z,124.60
2017-10-18T21:49:09.568Z,122.87
2017-10-18T21:51:37.192Z,124.82
2017-10-18T21:54:04.770Z,124.28
2017-10-18T21:56:33.319Z,122.00
2017-10-18T21:59:00.938Z,126.28
2017-10-18T22:01:28.516Z,111.72
2017-10-18T22:03:56.097Z,111.55
2017-10-18T22:06:23.718Z,115.75
2017-10-18T22:08:52.120Z,108.18
2017-10-18T22:11:19.787Z,120.65
2017-10-18T22:13:47.368Z,108.63
2017-10-18T22:16:14.984Z,131.45
2017-10-18T22:18:42.617Z,133.65
2017-10-18T22:21:10.247Z,124.53
2017-10-18T22:23:37.838Z,113.82
2017-10-18T22:26:05.459Z,118.50
2017-10-18T22:28:33.284Z,117.47
2017-10-18T22:31:01.669Z,122.87
2017-10-18T22:33:30.053Z,126.70
2017-10-18T22:35:57.667Z,126.82
2017-10-18T22:38:42.905Z,122.43
2017-10-18T22:41:10.526Z,128.82
2017-10-18T22:43:38.148Z,120.18
2017-10-18T22:46:05.757Z,115.75
2017-10-18T22:48:34.142Z,115.15
2017-10-18T22:51:02.526Z,120.57
2017-10-18T22:53:30.910Z,116.12
2017-10-18T22:55:58.583Z,121.70
2017-10-18T22:58:26.202Z,125.95
2017-10-18T23:00:53.820Z,131.25
2017-10-18T23:03:21.434Z,122.97
2017-10-18T23:05:49.060Z,125.57
2017-10-18T23:08:16.678Z,123.25
2017-10-18T23:10:44.262Z,123.22
2017-10-18T23:13:11.881Z,125.65
2017-10-18T23:15:56.802Z,122.40
2017-10-18T23:18:24.435Z,119.30
2017-10-18T23:20:52.059Z,122.60
2017-10-18T23:23:19.676Z,126.18
2017-10-18T23:25:47.326Z,116.68
2017-10-18T23:28:14.935Z,124.32
2017-10-18T23:30:42.556Z,117.57
2017-10-18T23:33:10.183Z,126.50
2017-10-18T23:35:38.563Z,130.07
2017-10-18T23:38:06.911Z,125.72
2017-10-18T23:40:34.527Z,130.00
2017-10-18T23:43:02.139Z,132.95
2017-10-18T23:45:29.736Z,120.62
2017-10-18T23:47:57.353Z,120.55
2017-10-18T23:50:24.975Z,119.75
2017-10-18T23:52:54.555Z,126.57
2017-10-18T23:55:22.940Z,141.05
2017-10-18T23:57:50.558Z,135.15
